sensor_id;sensor_type;location;lat;lon;timestamp;temperature;humidity
6792;DHT22;3433;48.730;9.108;2024-01-30T00:00:58;5.90;99.90
6792;DHT22;3433;48.730;9.108;2024-01-30T00:03:45;5.90;99.90
6792;DHT22;3433;48.730;9.108;2024-01-30T00:06:32;5.60;99.90
6792;DHT22;3433;48.730;9.108;2024-01-30T00:09:20;5.70;99.90
6792;DHT22;3433;48.730;9.108;2024-01-30T00:12:07;5.80;99.90
6792;DHT22;3433;48.730;9.108;2024-01-30T00:14:56;5.90;99.90
6792;DHT22;3433;48.730;9.108;2024-01-30T00:17:43;6.00;99.90
6792;DHT22;3433;48.730;9.108;2024-01-30T00:20:31;6.00;99.90
6792;DHT22;3433;48.730;9.108;2024-01-30T00:23:18;6.00;99.90
6792;DHT22;3433;48.730;9.108;2024-01-30T00:26:05;6.00;99.90
6792;DHT22;3433;48.730;9.108;2024-01-30T00:28:52;6.00;99.90
6792;DHT22;3433;48.730;9.108;2024-01-30T00:31:41;5.90;99.90
6792;DHT22;3433;48.730;9.108;2024-01-30T00:34:28;5.90;99.90
6792;DHT22;3433;48.730;9.108;2024-01-30T00:37:15;5.90;99.90
6792;DHT22;3433;48.730;9.108;2024-01-30T00:40:03;6.00;99.90
6792;DHT22;3433;48.730;9.108;2024-01-30T00:42:51;5.90;99.90
6792;DHT22;3433;48.730;9.108;2024-01-30T00:45:39;5.90;99.90
6792;DHT22;3433;48.730;9.108;2024-01-30T00:48:27;5.80;99.90
6792;DHT22;3433;48.730;9.108;2024-01-30T00:51:14;5.80;99.90
6792;DHT22;3433;48.730;9.108;2024-01-30T00:54:02;5.80;99.90
6792;DHT22;3433;48.730;9.108;2024-01-30T00:56:49;5.80;99.90
6792;DHT22;3433;48.730;9.108;2024-01-30T00:59:36;5.70;99.90
6792;DHT22;3433;48.730;9.108;2024-01-30T01:02:24;5.80;99.90
6792;DHT22;3433;48.730;9.108;2024-01-30T01:05:12;5.80;99.90
6792;DHT22;3433;48.730;9.108;2024-01-30T01:07:59;5.80;99.90
6792;DHT22;3433;48.730;9.108;2024-01-30T01:10:47;5.80;99.90
6792;DHT22;3433;48.730;9.108;2024-01-30T01:13:34;5.80;99.90
6792;DHT22;3433;48.730;9.108;2024-01-30T01:16:21;5.80;99.90
6792;DHT22;3433;48.730;9.108;2024-01-30T01:19:08;5.80;99.90
6792;DHT22;3433;48.730;9.108;2024-01-30T01:21:57;5.80;99.90
6792;DHT22;3433;48.730;9.108;2024-01-30T01:24:44;5.70;99.90
6792;DHT22;3433;48.730;9.108;2024-01-30T01:27:31;5.70;99.90
6792;DHT22;3433;48.730;9.108;2024-01-30T01:30:20;5.60;99.90
6792;DHT22;3433;48.730;9.108;2024-01-30T01:33:08;5.60;99.90
6792;DHT22;3433;48.730;9.108;2024-01-30T01:35:55;5.60;99.90
6792;DHT22;3433;48.730;9.108;2024-01-30T01:38:44;5.60;99.90
6792;DHT22;3433;48.730;9.108;2024-01-30T01:41:31;5.60;99.90
6792;DHT22;3433;48.730;9.108;2024-01-30T01:44:18;5.50;99.90
6792;DHT22;3433;48.730;9.108;2024-01-30T01:47:06;5.50;99.90
6792;DHT22;3433;48.730;9.108;2024-01-30T01:49:53;5.50;99.90
6792;DHT22;3433;48.730;9.108;2024-01-30T01:52:41;5.50;99.90
6792;DHT22;3433;48.730;9.108;2024-01-30T01:55:30;5.40;99.90
6792;DHT22;3433;48.730;9.108;2024-01-30T01:58:19;5.50;99.90
6792;DHT22;3433;48.730;9.108;2024-01-30T02:01:08;5.40;99.90
6792;DHT22;3433;48.730;9.108;2024-01-30T02:03:55;5.40;99.90
6792;DHT22;3433;48.730;9.108;2024-01-30T02:06:43;5.30;99.90
6792;DHT22;3433;48.730;9.108;2024-01-30T02:09:30;5.30;99.90
6792;DHT22;3433;48.730;9.108;2024-01-30T02:12:19;5.40;99.90
6792;DHT22;3433;48.730;9.108;2024-01-30T02:15:06;5.40;99.90
6792;DHT22;3433;48.730;9.108;2024-01-30T02:17:53;5.40;99.90
6792;DHT22;3433;48.730;9.108;2024-01-30T02:20:41;5.40;99.90
6792;DHT22;3433;48.730;9.108;2024-01-30T02:23:30;5.30;99.90
6792;DHT22;3433;48.730;9.108;2024-01-30T02:26:19;5.30;99.90
6792;DHT22;3433;48.730;9.108;2024-01-30T02:29:06;5.30;99.90
6792;DHT22;3433;48.730;9.108;2024-01-30T02:31:53;5.20;99.90
6792;DHT22;3433;48.730;9.108;2024-01-30T02:34:40;5.30;99.90
6792;DHT22;3433;48.730;9.108;2024-01-30T02:37:27;5.30;99.90
6792;DHT22;3433;48.730;9.108;2024-01-30T02:40:16;5.30;99.90
6792;DHT22;3433;48.730;9.108;2024-01-30T02:43:03;5.30;99.90
6792;DHT22;3433;48.730;9.108;2024-01-30T02:45:50;5.20;99.90
6792;DHT22;3433;48.730;9.108;2024-01-30T02:48:38;5.10;99.90
6792;DHT22;3433;48.730;9.108;2024-01-30T02:51:25;5.10;99.90
6792;DHT22;3433;48.730;9.108;2024-01-30T02:54:12;5.10;99.90
6792;DHT22;3433;48.730;9.108;2024-01-30T02:57:01;5.00;99.90
6792;DHT22;3433;48.730;9.108;2024-01-30T02:59:48;4.90;99.90
6792;DHT22;3433;48.730;9.108;2024-01-30T03:02:36;4.90;99.90
6792;DHT22;3433;48.730;9.108;2024-01-30T03:05:23;4.80;99.90
6792;DHT22;3433;48.730;9.108;2024-01-30T03:08:10;4.80;99.90
6792;DHT22;3433;48.730;9.108;2024-01-30T03:10:58;4.80;99.90
6792;DHT22;3433;48.730;9.108;2024-01-30T03:13:46;4.80;99.90
6792;DHT22;3433;48.730;9.108;2024-01-30T03:16:33;4.70;99.90
6792;DHT22;3433;48.730;9.108;2024-01-30T03:19:20;4.70;99.90
6792;DHT22;3433;48.730;9.108;2024-01-30T03:22:08;4.60;99.90
6792;DHT22;3433;48.730;9.108;2024-01-30T03:24:55;4.60;99.90
6792;DHT22;3433;48.730;9.108;2024-01-30T03:27:42;4.60;99.90
6792;DHT22;3433;48.730;9.108;2024-01-30T03:30:30;4.60;99.90
6792;DHT22;3433;48.730;9.108;2024-01-30T03:33:18;4.50;99.90
6792;DHT22;3433;48.730;9.108;2024-01-30T03:36:05;4.50;99.90
6792;DHT22;3433;48.730;9.108;2024-01-30T03:38:53;4.50;99.90
6792;DHT22;3433;48.730;9.108;2024-01-30T03:41:42;4.50;99.90
6792;DHT22;3433;48.730;9.108;2024-01-30T03:44:30;4.50;99.90
6792;DHT22;3433;48.730;9.108;2024-01-30T03:47:18;4.40;99.90
6792;DHT22;3433;48.730;9.108;2024-01-30T03:50:06;4.40;99.90
6792;DHT22;3433;48.730;9.108;2024-01-30T03:52:54;4.40;99.90
6792;DHT22;3433;48.730;9.108;2024-01-30T03:55:41;4.40;99.90
6792;DHT22;3433;48.730;9.108;2024-01-30T03:58:28;4.30;99.90
6792;DHT22;3433;48.730;9.108;2024-01-30T04:01:15;4.20;99.90
6792;DHT22;3433;48.730;9.108;2024-01-30T04:04:04;4.30;99.90
6792;DHT22;3433;48.730;9.108;2024-01-30T04:06:51;4.30;99.90
6792;DHT22;3433;48.730;9.108;2024-01-30T04:09:38;4.30;99.90
6792;DHT22;3433;48.730;9.108;2024-01-30T04:12:25;4.30;99.90
6792;DHT22;3433;48.730;9.108;2024-01-30T04:15:13;4.30;99.90
6792;DHT22;3433;48.730;9.108;2024-01-30T04:18:00;4.40;99.90
6792;DHT22;3433;48.730;9.108;2024-01-30T04:20:49;4.40;99.90
6792;DHT22;3433;48.730;9.108;2024-01-30T04:23:36;4.30;99.90
6792;DHT22;3433;48.730;9.108;2024-01-30T04:26:23;4.30;99.90
6792;DHT22;3433;48.730;9.108;2024-01-30T04:29:10;4.30;99.90
6792;DHT22;3433;48.730;9.108;2024-01-30T04:31:57;4.30;99.90
6792;DHT22;3433;48.730;9.108;2024-01-30T04:34:44;4.30;99.90
6792;DHT22;3433;48.730;9.108;2024-01-30T04:37:33;4.30;99.90
6792;DHT22;3433;48.730;9.108;2024-01-30T04:40:20;4.30;99.90
6792;DHT22;3433;48.730;9.108;2024-01-30T04:43:08;4.30;99.90
6792;DHT22;3433;48.730;9.108;2024-01-30T04:45:55;4.30;99.90
6792;DHT22;3433;48.730;9.108;2024-01-30T04:48:42;4.20;99.90
6792;DHT22;3433;48.730;9.108;2024-01-30T04:51:29;4.20;99.90
6792;DHT22;3433;48.730;9.108;2024-01-30T04:54:18;4.10;99.90
6792;DHT22;3433;48.730;9.108;2024-01-30T04:57:05;4.20;99.90
6792;DHT22;3433;48.730;9.108;2024-01-30T04:59:55;4.10;99.90
6792;DHT22;3433;48.730;9.108;2024-01-30T05:02:42;4.10;99.90
6792;DHT22;3433;48.730;9.108;2024-01-30T05:05:29;4.00;99.90
6792;DHT22;3433;48.730;9.108;2024-01-30T05:08:16;4.10;99.90
6792;DHT22;3433;48.730;9.108;2024-01-30T05:11:05;4.00;99.90
6792;DHT22;3433;48.730;9.108;2024-01-30T05:13:53;3.90;99.90
6792;DHT22;3433;48.730;9.108;2024-01-30T05:16:40;3.90;99.90
6792;DHT22;3433;48.730;9.108;2024-01-30T05:19:27;3.90;99.90
6792;DHT22;3433;48.730;9.108;2024-01-30T05:22:14;3.90;99.90
6792;DHT22;3433;48.730;9.108;2024-01-30T05:25:04;3.90;99.90
6792;DHT22;3433;48.730;9.108;2024-01-30T05:27:53;3.90;99.90
6792;DHT22;3433;48.730;9.108;2024-01-30T05:30:41;3.90;99.90
6792;DHT22;3433;48.730;9.108;2024-01-30T05:33:28;3.90;99.90
6792;DHT22;3433;48.730;9.108;2024-01-30T05:36:15;3.90;99.90
6792;DHT22;3433;48.730;9.108;2024-01-30T05:39:02;3.90;99.90
6792;DHT22;3433;48.730;9.108;2024-01-30T05:41:50;3.90;99.90
6792;DHT22;3433;48.730;9.108;2024-01-30T05:44:39;3.80;99.90
6792;DHT22;3433;48.730;9.108;2024-01-30T05:47:26;3.80;99.90
6792;DHT22;3433;48.730;9.108;2024-01-30T05:50:13;3.80;99.90
6792;DHT22;3433;48.730;9.108;2024-01-30T05:53:01;3.80;99.90
6792;DHT22;3433;48.730;9.108;2024-01-30T05:55:48;3.80;99.90
6792;DHT22;3433;48.730;9.108;2024-01-30T05:58:35;3.80;99.90
6792;DHT22;3433;48.730;9.108;2024-01-30T06:01:24;3.80;99.90
6792;DHT22;3433;48.730;9.108;2024-01-30T06:04:11;3.80;99.90
6792;DHT22;3433;48.730;9.108;2024-01-30T06:06:59;3.80;99.90
6792;DHT22;3433;48.730;9.108;2024-01-30T06:09:47;3.80;99.90
6792;DHT22;3433;48.730;9.108;2024-01-30T06:12:35;3.70;99.90
6792;DHT22;3433;48.730;9.108;2024-01-30T06:15:22;3.70;99.90
6792;DHT22;3433;48.730;9.108;2024-01-30T06:18:10;3.70;99.90
6792;DHT22;3433;48.730;9.108;2024-01-30T06:20:57;3.70;99.90
6792;DHT22;3433;48.730;9.108;2024-01-30T06:23:45;3.70;99.90
6792;DHT22;3433;48.730;9.108;2024-01-30T06:26:32;3.70;99.90
6792;DHT22;3433;48.730;9.108;2024-01-30T06:29:19;3.60;99.90
6792;DHT22;3433;48.730;9.108;2024-01-30T06:32:06;3.60;99.90
6792;DHT22;3433;48.730;9.108;2024-01-30T06:34:55;3.70;99.90
6792;DHT22;3433;48.730;9.108;2024-01-30T06:37:42;3.70;99.90
6792;DHT22;3433;48.730;9.108;2024-01-30T06:40:29;3.70;99.90
6792;DHT22;3433;48.730;9.108;2024-01-30T06:43:16;3.60;99.90
6792;DHT22;3433;48.730;9.108;2024-01-30T06:46:04;3.60;99.90
6792;DHT22;3433;48.730;9.108;2024-01-30T06:48:51;3.60;99.90
6792;DHT22;3433;48.730;9.108;2024-01-30T06:51:40;3.60;99.90
6792;DHT22;3433;48.730;9.108;2024-01-30T06:54:27;3.60;99.90
6792;DHT22;3433;48.730;9.108;2024-01-30T06:57:14;3.70;99.90
6792;DHT22;3433;48.730;9.108;2024-01-30T07:00:01;3.70;99.90
6792;DHT22;3433;48.730;9.108;2024-01-30T07:02:49;3.70;99.90
6792;DHT22;3433;48.730;9.108;2024-01-30T07:05:36;3.70;99.90
6792;DHT22;3433;48.730;9.108;2024-01-30T07:08:24;3.70;99.90
6792;DHT22;3433;48.730;9.108;2024-01-30T07:11:18;3.70;99.90
6792;DHT22;3433;48.730;9.108;2024-01-30T07:14:05;3.80;99.90
6792;DHT22;3433;48.730;9.108;2024-01-30T07:16:53;3.70;99.90
6792;DHT22;3433;48.730;9.108;2024-01-30T07:19:40;3.80;99.90
6792;DHT22;3433;48.730;9.108;2024-01-30T07:22:27;3.90;99.90
6792;DHT22;3433;48.730;9.108;2024-01-30T07:25:16;4.00;99.90
6792;DHT22;3433;48.730;9.108;2024-01-30T07:28:04;4.00;99.90
6792;DHT22;3433;48.730;9.108;2024-01-30T07:30:51;4.10;99.90
6792;DHT22;3433;48.730;9.108;2024-01-30T07:33:38;4.10;99.90
6792;DHT22;3433;48.730;9.108;2024-01-30T07:36:26;4.00;99.90
6792;DHT22;3433;48.730;9.108;2024-01-30T07:39:13;3.70;99.90
6792;DHT22;3433;48.730;9.108;2024-01-30T07:42:02;3.90;99.90
6792;DHT22;3433;48.730;9.108;2024-01-30T07:44:50;3.90;99.90
6792;DHT22;3433;48.730;9.108;2024-01-30T07:47:37;4.10;99.90
6792;DHT22;3433;48.730;9.108;2024-01-30T07:50:24;4.30;99.90
6792;DHT22;3433;48.730;9.108;2024-01-30T07:53:12;4.40;99.90
6792;DHT22;3433;48.730;9.108;2024-01-30T07:55:59;4.50;99.90
6792;DHT22;3433;48.730;9.108;2024-01-30T07:58:47;4.20;99.90
6792;DHT22;3433;48.730;9.108;2024-01-30T08:01:34;4.40;99.90
6792;DHT22;3433;48.730;9.108;2024-01-30T08:04:22;4.50;99.90
6792;DHT22;3433;48.730;9.108;2024-01-30T08:07:09;4.50;99.90
6792;DHT22;3433;48.730;9.108;2024-01-30T08:09:56;4.50;99.90
6792;DHT22;3433;48.730;9.108;2024-01-30T08:12:43;4.80;99.90
6792;DHT22;3433;48.730;9.108;2024-01-30T08:15:32;5.10;99.90
6792;DHT22;3433;48.730;9.108;2024-01-30T08:18:19;5.40;99.90
6792;DHT22;3433;48.730;9.108;2024-01-30T08:21:06;5.50;99.90
6792;DHT22;3433;48.730;9.108;2024-01-30T08:23:53;5.60;99.90
6792;DHT22;3433;48.730;9.108;2024-01-30T08:26:40;5.80;99.90
6792;DHT22;3433;48.730;9.108;2024-01-30T08:29:28;5.80;99.90
6792;DHT22;3433;48.730;9.108;2024-01-30T08:32:16;6.00;99.90
6792;DHT22;3433;48.730;9.108;2024-01-30T08:35:04;6.20;99.90
6792;DHT22;3433;48.730;9.108;2024-01-30T08:37:52;6.30;99.90
6792;DHT22;3433;48.730;9.108;2024-01-30T08:40:40;6.30;99.90
6792;DHT22;3433;48.730;9.108;2024-01-30T08:43:27;6.50;99.90
6792;DHT22;3433;48.730;9.108;2024-01-30T08:46:17;6.50;99.90
6792;DHT22;3433;48.730;9.108;2024-01-30T08:49:06;6.60;99.90
6792;DHT22;3433;48.730;9.108;2024-01-30T08:51:53;6.80;99.90
6792;DHT22;3433;48.730;9.108;2024-01-30T08:54:40;7.20;99.90
6792;DHT22;3433;48.730;9.108;2024-01-30T08:57:28;7.40;99.90
6792;DHT22;3433;48.730;9.108;2024-01-30T09:00:17;7.40;99.90
6792;DHT22;3433;48.730;9.108;2024-01-30T09:03:04;7.40;99.90
6792;DHT22;3433;48.730;9.108;2024-01-30T09:05:53;7.50;99.90
6792;DHT22;3433;48.730;9.108;2024-01-30T09:08:40;7.70;99.90
6792;DHT22;3433;48.730;9.108;2024-01-30T09:11:27;8.00;99.90
6792;DHT22;3433;48.730;9.108;2024-01-30T09:14:16;8.00;99.90
6792;DHT22;3433;48.730;9.108;2024-01-30T09:17:04;8.20;99.90
6792;DHT22;3433;48.730;9.108;2024-01-30T09:19:51;8.20;99.90
6792;DHT22;3433;48.730;9.108;2024-01-30T09:22:40;8.30;99.90
6792;DHT22;3433;48.730;9.108;2024-01-30T09:25:27;8.30;99.90
6792;DHT22;3433;48.730;9.108;2024-01-30T09:28:14;8.40;99.90
6792;DHT22;3433;48.730;9.108;2024-01-30T09:31:01;8.50;99.90
6792;DHT22;3433;48.730;9.108;2024-01-30T09:33:48;8.60;99.90
6792;DHT22;3433;48.730;9.108;2024-01-30T09:36:37;8.70;99.90
6792;DHT22;3433;48.730;9.108;2024-01-30T09:39:25;8.90;99.90
6792;DHT22;3433;48.730;9.108;2024-01-30T09:42:20;9.10;99.90
6792;DHT22;3433;48.730;9.108;2024-01-30T09:45:09;9.20;99.90
6792;DHT22;3433;48.730;9.108;2024-01-30T09:48:00;9.40;99.90
6792;DHT22;3433;48.730;9.108;2024-01-30T09:50:47;9.50;99.90
6792;DHT22;3433;48.730;9.108;2024-01-30T09:53:35;9.60;99.90
6792;DHT22;3433;48.730;9.108;2024-01-30T09:56:24;9.70;99.90
6792;DHT22;3433;48.730;9.108;2024-01-30T09:59:11;9.70;99.90
6792;DHT22;3433;48.730;9.108;2024-01-30T10:01:58;10.00;99.90
6792;DHT22;3433;48.730;9.108;2024-01-30T10:04:48;10.00;99.90
6792;DHT22;3433;48.730;9.108;2024-01-30T10:07:35;9.90;99.90
6792;DHT22;3433;48.730;9.108;2024-01-30T10:10:22;10.00;99.90
6792;DHT22;3433;48.730;9.108;2024-01-30T10:13:11;10.00;99.60
6792;DHT22;3433;48.730;9.108;2024-01-30T10:15:58;10.00;99.90
6792;DHT22;3433;48.730;9.108;2024-01-30T10:18:48;10.00;99.90
6792;DHT22;3433;48.730;9.108;2024-01-30T10:21:35;10.00;99.60
6792;DHT22;3433;48.730;9.108;2024-01-30T10:24:24;10.20;99.90
6792;DHT22;3433;48.730;9.108;2024-01-30T10:27:11;10.30;99.50
6792;DHT22;3433;48.730;9.108;2024-01-30T10:30:00;10.30;99.90
6792;DHT22;3433;48.730;9.108;2024-01-30T10:32:47;10.30;99.90
6792;DHT22;3433;48.730;9.108;2024-01-30T10:35:34;10.40;99.90
6792;DHT22;3433;48.730;9.108;2024-01-30T10:38:23;10.40;99.50
6792;DHT22;3433;48.730;9.108;2024-01-30T10:41:11;10.30;99.70
6792;DHT22;3433;48.730;9.108;2024-01-30T10:44:09;10.40;99.90
6792;DHT22;3433;48.730;9.108;2024-01-30T10:47:05;10.40;99.40
6792;DHT22;3433;48.730;9.108;2024-01-30T10:49:54;10.60;99.90
6792;DHT22;3433;48.730;9.108;2024-01-30T10:52:42;10.60;99.60
6792;DHT22;3433;48.730;9.108;2024-01-30T10:55:29;10.70;99.90
6792;DHT22;3433;48.730;9.108;2024-01-30T10:58:18;10.70;99.50
6792;DHT22;3433;48.730;9.108;2024-01-30T11:01:06;10.80;99.90
6792;DHT22;3433;48.730;9.108;2024-01-30T11:03:56;10.80;99.90
6792;DHT22;3433;48.730;9.108;2024-01-30T11:06:43;10.80;99.60
6792;DHT22;3433;48.730;9.108;2024-01-30T11:09:36;10.80;99.20
6792;DHT22;3433;48.730;9.108;2024-01-30T11:12:24;10.80;98.90
6792;DHT22;3433;48.730;9.108;2024-01-30T11:15:13;10.80;99.20
6792;DHT22;3433;48.730;9.108;2024-01-30T11:18:00;10.90;98.90
6792;DHT22;3433;48.730;9.108;2024-01-30T11:20:49;10.90;99.10
6792;DHT22;3433;48.730;9.108;2024-01-30T11:23:36;10.90;99.40
6792;DHT22;3433;48.730;9.108;2024-01-30T11:26:28;11.10;99.90
6792;DHT22;3433;48.730;9.108;2024-01-30T11:29:17;11.20;99.90
6792;DHT22;3433;48.730;9.108;2024-01-30T11:32:05;11.20;99.20
6792;DHT22;3433;48.730;9.108;2024-01-30T11:34:52;11.10;99.10
6792;DHT22;3433;48.730;9.108;2024-01-30T11:37:41;11.10;98.90
6792;DHT22;3433;48.730;9.108;2024-01-30T11:40:30;11.10;98.70
6792;DHT22;3433;48.730;9.108;2024-01-30T11:43:19;11.10;98.70
6792;DHT22;3433;48.730;9.108;2024-01-30T11:46:06;11.30;99.80
6792;DHT22;3433;48.730;9.108;2024-01-30T11:48:55;11.30;99.00
6792;DHT22;3433;48.730;9.108;2024-01-30T11:51:42;11.40;99.90
6792;DHT22;3433;48.730;9.108;2024-01-30T11:54:30;11.50;99.90
6792;DHT22;3433;48.730;9.108;2024-01-30T11:57:18;11.40;99.00
6792;DHT22;3433;48.730;9.108;2024-01-30T12:00:06;11.50;98.30
6792;DHT22;3433;48.730;9.108;2024-01-30T12:03:01;11.40;98.60
6792;DHT22;3433;48.730;9.108;2024-01-30T12:05:55;11.40;98.60
6792;DHT22;3433;48.730;9.108;2024-01-30T12:08:42;11.40;98.60
6792;DHT22;3433;48.730;9.108;2024-01-30T12:11:31;11.60;99.30
6792;DHT22;3433;48.730;9.108;2024-01-30T12:14:19;11.70;99.90
6792;DHT22;3433;48.730;9.108;2024-01-30T12:17:08;11.60;98.80
6792;DHT22;3433;48.730;9.108;2024-01-30T12:20:03;11.90;99.90
6792;DHT22;3433;48.730;9.108;2024-01-30T12:22:52;11.80;98.60
6792;DHT22;3433;48.730;9.108;2024-01-30T12:25:40;11.80;98.40
6792;DHT22;3433;48.730;9.108;2024-01-30T12:28:29;11.70;98.70
6792;DHT22;3433;48.730;9.108;2024-01-30T12:31:16;11.70;98.70
6792;DHT22;3433;48.730;9.108;2024-01-30T12:34:03;11.90;99.10
6792;DHT22;3433;48.730;9.108;2024-01-30T12:36:51;12.10;99.90
6792;DHT22;3433;48.730;9.108;2024-01-30T12:39:38;12.20;99.90
6792;DHT22;3433;48.730;9.108;2024-01-30T12:42:27;12.30;99.90
6792;DHT22;3433;48.730;9.108;2024-01-30T12:45:15;12.30;99.90
6792;DHT22;3433;48.730;9.108;2024-01-30T12:48:06;12.10;98.20
6792;DHT22;3433;48.730;9.108;2024-01-30T12:50:53;12.10;99.20
6792;DHT22;3433;48.730;9.108;2024-01-30T12:53:41;12.00;98.20
6792;DHT22;3433;48.730;9.108;2024-01-30T12:56:28;12.00;97.70
6792;DHT22;3433;48.730;9.108;2024-01-30T12:59:15;12.10;99.40
6792;DHT22;3433;48.730;9.108;2024-01-30T13:02:04;12.10;97.80
6792;DHT22;3433;48.730;9.108;2024-01-30T13:04:51;12.00;97.50
6792;DHT22;3433;48.730;9.108;2024-01-30T13:07:38;12.00;98.00
6792;DHT22;3433;48.730;9.108;2024-01-30T13:10:25;12.00;97.80
6792;DHT22;3433;48.730;9.108;2024-01-30T13:13:13;12.20;98.60
6792;DHT22;3433;48.730;9.108;2024-01-30T13:16:00;12.40;99.60
6792;DHT22;3433;48.730;9.108;2024-01-30T13:18:49;12.50;98.90
6792;DHT22;3433;48.730;9.108;2024-01-30T13:21:36;12.50;97.90
6792;DHT22;3433;48.730;9.108;2024-01-30T13:24:23;12.30;97.50
6792;DHT22;3433;48.730;9.108;2024-01-30T13:27:10;12.30;98.90
6792;DHT22;3433;48.730;9.108;2024-01-30T13:29:57;12.60;99.20
6792;DHT22;3433;48.730;9.108;2024-01-30T13:32:44;12.60;97.80
6792;DHT22;3433;48.730;9.108;2024-01-30T13:35:33;12.50;97.80
6792;DHT22;3433;48.730;9.108;2024-01-30T13:38:20;12.50;97.60
6792;DHT22;3433;48.730;9.108;2024-01-30T13:41:07;12.40;97.40
6792;DHT22;3433;48.730;9.108;2024-01-30T13:43:54;12.40;97.50
6792;DHT22;3433;48.730;9.108;2024-01-30T13:46:42;12.50;99.70
6792;DHT22;3433;48.730;9.108;2024-01-30T13:49:29;13.00;99.90
6792;DHT22;3433;48.730;9.108;2024-01-30T13:52:17;13.50;99.90
6792;DHT22;3433;48.730;9.108;2024-01-30T13:55:04;13.90;99.90
6792;DHT22;3433;48.730;9.108;2024-01-30T13:57:52;14.30;99.90
6792;DHT22;3433;48.730;9.108;2024-01-30T14:00:39;14.50;99.90
6792;DHT22;3433;48.730;9.108;2024-01-30T14:03:26;14.40;99.90
6792;DHT22;3433;48.730;9.108;2024-01-30T14:06:13;14.40;99.90
6792;DHT22;3433;48.730;9.108;2024-01-30T14:09:02;14.70;99.90
6792;DHT22;3433;48.730;9.108;2024-01-30T14:11:49;14.90;99.90
6792;DHT22;3433;48.730;9.108;2024-01-30T14:14:37;14.80;99.90
6792;DHT22;3433;48.730;9.108;2024-01-30T14:17:24;15.00;99.90
6792;DHT22;3433;48.730;9.108;2024-01-30T14:20:11;15.10;99.90
6792;DHT22;3433;48.730;9.108;2024-01-30T14:22:58;15.20;99.90
6792;DHT22;3433;48.730;9.108;2024-01-30T14:25:47;15.40;99.90
6792;DHT22;3433;48.730;9.108;2024-01-30T14:28:34;15.40;99.90
6792;DHT22;3433;48.730;9.108;2024-01-30T14:31:21;15.40;98.00
6792;DHT22;3433;48.730;9.108;2024-01-30T14:34:10;15.00;99.90
6792;DHT22;3433;48.730;9.108;2024-01-30T14:36:57;15.10;99.90
6792;DHT22;3433;48.730;9.108;2024-01-30T14:39:44;14.90;99.90
6792;DHT22;3433;48.730;9.108;2024-01-30T14:42:33;14.60;97.20
6792;DHT22;3433;48.730;9.108;2024-01-30T14:45:20;14.10;99.60
6792;DHT22;3433;48.730;9.108;2024-01-30T14:48:08;14.20;99.90
6792;DHT22;3433;48.730;9.108;2024-01-30T14:50:55;14.10;99.70
6792;DHT22;3433;48.730;9.108;2024-01-30T14:53:43;13.90;99.90
6792;DHT22;3433;48.730;9.108;2024-01-30T14:56:30;13.70;99.20
6792;DHT22;3433;48.730;9.108;2024-01-30T14:59:20;13.70;99.90
6792;DHT22;3433;48.730;9.108;2024-01-30T15:02:07;13.70;99.90
6792;DHT22;3433;48.730;9.108;2024-01-30T15:04:54;13.40;99.90
6792;DHT22;3433;48.730;9.108;2024-01-30T15:07:41;13.40;99.90
6792;DHT22;3433;48.730;9.108;2024-01-30T15:10:28;13.40;99.90
6792;DHT22;3433;48.730;9.108;2024-01-30T15:13:16;13.30;99.90
6792;DHT22;3433;48.730;9.108;2024-01-30T15:16:05;13.20;99.90
6792;DHT22;3433;48.730;9.108;2024-01-30T15:18:52;12.90;99.90
6792;DHT22;3433;48.730;9.108;2024-01-30T15:21:39;13.00;99.90
6792;DHT22;3433;48.730;9.108;2024-01-30T15:24:26;12.70;97.50
6792;DHT22;3433;48.730;9.108;2024-01-30T15:27:13;11.90;98.60
6792;DHT22;3433;48.730;9.108;2024-01-30T15:30:01;11.60;99.90
6792;DHT22;3433;48.730;9.108;2024-01-30T15:32:49;11.50;99.80
6792;DHT22;3433;48.730;9.108;2024-01-30T15:35:37;11.20;99.90
6792;DHT22;3433;48.730;9.108;2024-01-30T15:38:24;11.00;99.90
6792;DHT22;3433;48.730;9.108;2024-01-30T15:41:12;10.80;99.90
6792;DHT22;3433;48.730;9.108;2024-01-30T15:43:59;10.60;99.90
6792;DHT22;3433;48.730;9.108;2024-01-30T15:46:48;10.60;99.90
6792;DHT22;3433;48.730;9.108;2024-01-30T15:49:36;10.50;99.90
6792;DHT22;3433;48.730;9.108;2024-01-30T15:52:24;10.80;99.90
6792;DHT22;3433;48.730;9.108;2024-01-30T15:55:11;10.80;99.90
6792;DHT22;3433;48.730;9.108;2024-01-30T15:58:00;10.70;99.90
6792;DHT22;3433;48.730;9.108;2024-01-30T16:00:47;10.50;99.90
6792;DHT22;3433;48.730;9.108;2024-01-30T16:07:01;10.80;99.90
6792;DHT22;3433;48.730;9.108;2024-01-30T16:09:49;11.20;99.90
6792;DHT22;3433;48.730;9.108;2024-01-30T16:12:37;11.20;99.90
6792;DHT22;3433;48.730;9.108;2024-01-30T16:15:27;11.30;99.90
6792;DHT22;3433;48.730;9.108;2024-01-30T16:18:14;11.40;99.90
6792;DHT22;3433;48.730;9.108;2024-01-30T16:21:02;11.40;99.90
6792;DHT22;3433;48.730;9.108;2024-01-30T16:23:50;11.40;99.90
6792;DHT22;3433;48.730;9.108;2024-01-30T16:26:39;11.40;99.90
6792;DHT22;3433;48.730;9.108;2024-01-30T16:29:26;11.40;99.90
6792;DHT22;3433;48.730;9.108;2024-01-30T16:32:13;11.40;99.90
6792;DHT22;3433;48.730;9.108;2024-01-30T16:35:01;11.40;99.90
6792;DHT22;3433;48.730;9.108;2024-01-30T16:37:48;11.30;99.90
6792;DHT22;3433;48.730;9.108;2024-01-30T16:40:36;11.30;99.90
6792;DHT22;3433;48.730;9.108;2024-01-30T16:43:23;11.30;99.90
6792;DHT22;3433;48.730;9.108;2024-01-30T16:46:10;11.20;99.90
6792;DHT22;3433;48.730;9.108;2024-01-30T16:48:57;11.10;99.90
6792;DHT22;3433;48.730;9.108;2024-01-30T16:51:44;11.10;99.90
6792;DHT22;3433;48.730;9.108;2024-01-30T16:54:32;11.00;99.90
6792;DHT22;3433;48.730;9.108;2024-01-30T16:57:20;11.00;99.90
6792;DHT22;3433;48.730;9.108;2024-01-30T17:00:08;10.90;99.90
6792;DHT22;3433;48.730;9.108;2024-01-30T17:02:55;10.80;99.90
6792;DHT22;3433;48.730;9.108;2024-01-30T17:05:42;10.80;99.90
6792;DHT22;3433;48.730;9.108;2024-01-30T17:08:29;10.80;99.90
6792;DHT22;3433;48.730;9.108;2024-01-30T17:11:16;10.70;99.90
6792;DHT22;3433;48.730;9.108;2024-01-30T17:14:05;10.60;99.90
6792;DHT22;3433;48.730;9.108;2024-01-30T17:16:52;10.60;99.90
6792;DHT22;3433;48.730;9.108;2024-01-30T17:19:39;10.60;99.90
6792;DHT22;3433;48.730;9.108;2024-01-30T17:22:26;10.50;99.90
6792;DHT22;3433;48.730;9.108;2024-01-30T17:25:14;10.50;99.90
6792;DHT22;3433;48.730;9.108;2024-01-30T17:28:02;10.50;99.90
6792;DHT22;3433;48.730;9.108;2024-01-30T17:30:50;10.50;99.90
6792;DHT22;3433;48.730;9.108;2024-01-30T17:33:37;10.40;99.90
6792;DHT22;3433;48.730;9.108;2024-01-30T17:36:25;10.30;99.90
6792;DHT22;3433;48.730;9.108;2024-01-30T17:39:12;10.40;99.90
6792;DHT22;3433;48.730;9.108;2024-01-30T17:41:59;10.30;99.90
6792;DHT22;3433;48.730;9.108;2024-01-30T17:44:46;10.20;99.90
6792;DHT22;3433;48.730;9.108;2024-01-30T17:47:35;10.20;99.90
6792;DHT22;3433;48.730;9.108;2024-01-30T17:50:22;10.20;99.90
6792;DHT22;3433;48.730;9.108;2024-01-30T17:53:09;10.20;99.90
6792;DHT22;3433;48.730;9.108;2024-01-30T17:55:36;10.20;99.90
6792;DHT22;3433;48.730;9.108;2024-01-30T17:58:03;10.10;99.90
6792;DHT22;3433;48.730;9.108;2024-01-30T18:00:31;10.10;99.90
6792;DHT22;3433;48.730;9.108;2024-01-30T18:03:00;10.10;99.90
6792;DHT22;3433;48.730;9.108;2024-01-30T18:05:29;10.10;99.90
6792;DHT22;3433;48.730;9.108;2024-01-30T18:07:56;10.10;99.90
6792;DHT22;3433;48.730;9.108;2024-01-30T18:10:23;10.00;99.90
6792;DHT22;3433;48.730;9.108;2024-01-30T18:12:50;10.00;99.90
6792;DHT22;3433;48.730;9.108;2024-01-30T18:15:19;10.00;99.90
6792;DHT22;3433;48.730;9.108;2024-01-30T18:17:46;10.00;99.90
6792;DHT22;3433;48.730;9.108;2024-01-30T18:20:15;10.00;99.90
6792;DHT22;3433;48.730;9.108;2024-01-30T18:22:42;10.00;99.90